Time;durP1;ratioP1;P1;durP2;ratioP2;P2;SDS_P1;SDS_P2;PMS_P1;PMS_P2;Temp;Humidity;BMP_temperature;BMP_pressure;BME280_temperature;BME280_humidity;BME280_pressure;Samples;Min_cycle;Max_cycle;Signal;HPM_P1;HPM_P2
2022/08/15 00:01:40;;;;;;;5.50;2.67;;;27.20;41.30;;;27.58;31.13;97629.38;5039848;27;120098;-72
2022/08/15 00:04:08;;;;;;;3.70;2.40;;;27.20;41.40;;;27.59;31.59;97630.97;5033804;27;124170;-72
2022/08/15 00:06:42;;;;;;;3.20;2.47;;;27.20;41.50;;;27.59;31.67;97611.09;5028858;27;123924;-72
2022/08/15 00:09:21;;;;;;;2.60;2.30;;;27.20;41.60;;;27.60;31.65;97614.75;5047135;27;119132;-72
2022/08/15 00:11:53;;;;;;;3.30;2.47;;;27.20;41.70;;;27.59;31.40;97613.16;5035046;27;118972;-72
2022/08/15 00:14:34;;;;;;;4.00;2.77;;;27.20;41.70;;;27.52;31.46;97617.03;5039926;27;124141;-72
2022/08/15 00:17:09;;;;;;;3.63;3.20;;;27.20;41.80;;;27.44;31.96;97618.53;5039332;27;123620;-72
2022/08/15 00:19:47;;;;;;;3.10;2.50;;;27.10;42.50;;;27.38;31.83;97615.47;5035724;27;118511;-72
2022/08/15 00:22:17;;;;;;;2.73;2.47;;;27.00;42.00;;;27.34;32.35;97613.97;5033939;27;119754;-72
2022/08/15 00:24:47;;;;;;;3.47;2.10;;;27.00;42.10;;;27.30;32.18;97609.22;5030846;27;124663;-72
2022/08/15 00:27:14;;;;;;;2.90;2.60;;;27.00;42.40;;;27.28;32.30;97606.03;5035999;27;123702;-71
2022/08/15 00:29:41;;;;;;;2.50;2.30;;;26.90;42.80;;;27.25;33.12;97600.50;5030926;27;119369;-70
2022/08/15 00:32:18;;;;;;;3.50;2.43;;;26.90;43.10;;;27.20;32.76;97613.19;5039429;27;119477;-70
2022/08/15 00:34:44;;;;;;;4.80;3.20;;;26.80;43.40;;;27.18;33.29;97623.41;5041650;27;124050;-71
2022/08/15 00:37:11;;;;;;;2.43;2.23;;;26.80;43.70;;;27.20;33.38;97632.25;5035495;27;123357;-71
2022/08/15 00:39:39;;;;;;;3.10;2.80;;;26.80;43.90;;;27.18;33.20;97638.38;5026866;27;120521;-71
2022/08/15 00:42:08;;;;;;;3.00;2.70;;;26.80;44.00;;;27.19;33.34;97630.63;5028381;27;120043;-71
2022/08/15 00:44:44;;;;;;;3.80;2.90;;;26.80;44.20;;;27.18;33.49;97646.09;5026813;27;124600;-71
2022/08/15 00:47:18;;;;;;;4.40;2.80;;;26.80;44.40;;;27.14;33.68;97646.16;5028236;27;124063;-71
2022/08/15 00:49:47;;;;;;;3.40;2.93;;;26.80;44.50;;;27.08;33.74;97647.97;5035732;27;119200;-71
2022/08/15 00:52:24;;;;;;;6.93;2.70;;;26.70;44.70;;;27.02;34.25;97646.94;5026972;27;118998;-71
2022/08/15 00:54:56;;;;;;;4.33;2.90;;;26.60;44.80;;;26.98;34.13;97649.09;5027129;27;123922;-71
2022/08/15 00:57:31;;;;;;;5.63;2.87;;;26.60;45.00;;;26.94;34.37;97643.53;5029745;27;124220;-71
2022/08/15 01:00:11;;;;;;;4.47;3.00;;;26.60;45.20;;;26.94;34.56;97640.69;5036890;27;119466;-70
2022/08/15 01:02:38;;;;;;;3.20;2.87;;;26.50;45.30;;;26.94;34.34;97637.06;5028075;27;118852;-70
2022/08/15 01:05:13;;;;;;;3.10;2.80;;;26.50;45.40;;;26.93;34.43;97635.47;5029265;27;123965;-71
2022/08/15 01:07:42;;;;;;;3.77;3.20;;;26.50;45.70;;;26.90;34.93;97633.56;5017213;27;122793;-71
2022/08/15 01:10:10;;;;;;;3.73;2.70;;;26.50;45.80;;;26.87;34.73;97623.91;5029789;27;119733;-71
2022/08/15 01:12:38;;;;;;;3.90;2.80;;;26.50;46.00;;;26.86;35.21;97625.94;5031957;27;119280;-71
2022/08/15 01:15:13;;;;;;;3.17;2.67;;;26.50;46.20;;;26.84;35.01;97633.28;5035230;27;124118;-71
2022/08/15 01:17:42;;;;;;;3.50;3.20;;;26.40;46.30;;;26.81;35.03;97632.19;5026629;27;123829;-71
2022/08/15 01:20:23;;;;;;;6.80;2.77;;;26.40;46.50;;;26.75;35.22;97636.78;5034485;27;119123;-73
2022/08/15 01:22:52;;;;;;;3.00;2.30;;;26.40;46.50;;;26.69;35.05;97632.94;5028529;27;119946;-71
2022/08/15 01:25:38;;;;;;;6.13;2.87;;;26.30;46.40;;;26.66;35.29;97648.00;5034300;27;124079;-71
2022/08/15 01:28:13;;;;;;;3.13;2.83;;;26.30;46.50;;;26.68;35.36;97642.69;5025679;27;124379;-71
2022/08/15 01:31:15;;;;;;;3.90;2.73;;;26.30;46.70;;;26.65;35.35;97640.72;5026123;27;120254;-71
2022/08/15 01:33:57;;;;;;;2.60;2.40;;;26.20;46.60;;;26.65;35.28;97640.72;5038948;27;120294;-71
2022/08/15 01:36:28;;;;;;;3.40;2.47;;;26.20;47.40;;;26.65;35.99;97640.72;5026784;27;123471;-71
2022/08/15 01:39:27;;;;;;;3.10;2.70;;;26.20;47.50;;;26.64;35.71;97636.31;5030172;27;123747;-71
2022/08/15 01:42:06;;;;;;;3.03;2.50;;;26.20;47.10;;;26.63;35.90;97643.25;5039456;27;118616;-71
2022/08/15 01:44:42;;;;;;;2.90;2.60;;;26.20;47.20;;;26.63;36.27;97646.06;5032568;27;119428;-71
2022/08/15 01:47:48;;;;;;;5.23;3.30;;;26.20;47.40;;;26.57;36.38;97642.19;5033011;27;124615;-71
2022/08/15 01:50:30;;;;;;;2.53;2.33;;;26.20;47.80;;;26.54;36.23;97645.91;5047830;27;122642;-71
2022/08/15 01:53:10;;;;;;;4.03;3.40;;;26.10;48.00;;;26.50;36.60;97645.22;5029814;27;119361;-71
2022/08/15 01:55:53;;;;;;;5.90;3.00;;;26.10;48.40;;;26.41;36.98;97643.81;5034834;27;119084;-71
2022/08/15 01:58:21;;;;;;;2.90;2.67;;;26.00;48.80;;;26.35;37.25;97647.63;5035981;27;124225;-71
2022/08/15 02:01:06;;;;;;;4.93;3.30;;;25.90;49.10;;;26.27;38.19;97655.53;5025332;27;124024;-71
2022/08/15 02:03:34;;;;;;;3.23;2.93;;;25.90;49.90;;;26.15;38.22;97648.56;5032070;27;119765;-71
2022/08/15 02:06:12;;;;;;;5.10;3.10;;;25.80;50.20;;;26.08;38.99;97645.13;5036788;27;117796;-71
2022/08/15 02:08:40;;;;;;;3.50;3.00;;;25.70;50.60;;;25.98;39.34;97639.31;5027173;27;124018;-71
2022/08/15 02:11:15;;;;;;;4.83;3.00;;;25.70;50.90;;;25.91;39.47;97650.03;5025730;27;123917;-70
2022/08/15 02:13:43;;;;;;;3.70;2.87;;;25.60;51.40;;;25.83;40.31;97640.91;5025919;27;119795;-71
2022/08/15 02:16:13;;;;;;;8.33;2.80;;;25.50;51.80;;;25.74;40.79;97652.06;5032429;27;119052;-71
2022/08/15 02:18:40;;;;;;;4.53;3.00;;;25.40;52.50;;;25.63;40.95;97651.50;5029087;27;124521;-71
2022/08/15 02:21:07;;;;;;;3.67;3.00;;;25.30;52.90;;;25.54;41.06;97640.81;5028203;27;123995;-71
2022/08/15 02:23:35;;;;;;;3.73;2.90;;;25.20;53.10;;;25.49;41.09;97644.16;5025630;27;119204;-71
2022/08/15 02:26:04;;;;;;;5.83;2.80;;;25.20;53.30;;;25.44;41.40;97639.84;5035139;27;118916;-71
2022/08/15 02:28:31;;;;;;;6.63;3.40;;;25.10;53.50;;;25.43;41.60;97646.72;5025729;27;124187;-71
2022/08/15 02:30:57;;;;;;;2.73;2.47;;;25.10;53.70;;;25.41;41.67;97646.34;5038270;27;123911;-71
2022/08/15 02:33:24;;;;;;;5.20;2.50;;;25.10;53.80;;;25.40;41.48;97641.94;5043666;27;118210;-71
2022/08/15 02:35:51;;;;;;;4.63;2.70;;;25.00;53.90;;;25.38;41.26;97647.25;5028849;27;118626;-71
2022/08/15 02:38:18;;;;;;;4.90;3.40;;;25.00;54.10;;;25.35;41.80;97651.75;5027377;27;124129;-71
2022/08/15 02:40:45;;;;;;;6.83;3.13;;;25.00;54.30;;;25.37;41.99;97659.00;5026020;27;123786;-71
2022/08/15 02:43:14;;;;;;;3.60;2.87;;;25.00;54.30;;;25.37;42.06;97647.69;5026278;27;119774;-71
2022/08/15 02:45:47;;;;;;;7.87;3.50;;;25.00;54.40;;;25.38;41.92;97649.28;5023976;27;119250;-71
2022/08/15 02:48:14;;;;;;;4.90;3.57;;;25.00;54.50;;;25.38;41.82;97650.06;5029277;27;124044;-71
2022/08/15 02:50:42;;;;;;;5.10;3.17;;;25.00;54.50;;;25.39;42.08;97660.16;5029241;27;123473;-71
2022/08/15 02:53:12;;;;;;;3.70;2.70;;;25.00;54.60;;;25.43;41.79;97662.91;5024772;27;120034;-72
2022/08/15 02:55:42;;;;;;;5.33;2.83;;;25.00;54.80;;;25.45;41.76;97660.44;5025182;27;119217;-71
2022/08/15 02:58:11;;;;;;;2.57;2.30;;;25.00;54.90;;;25.46;41.68;97667.66;5007029;27;123905;-71
2022/08/15 03:00:41;;;;;;;6.60;2.43;;;25.00;55.60;;;25.43;41.88;97658.03;5027172;27;123595;-71
2022/08/15 03:03:12;;;;;;;4.50;2.60;;;25.00;55.10;;;25.43;42.31;97663.69;5035508;27;119745;-71
2022/08/15 03:05:43;;;;;;;2.77;2.47;;;25.00;55.00;;;25.45;42.16;97661.22;5034025;27;118254;-71
2022/08/15 03:08:11;;;;;;;3.60;2.60;;;25.00;55.10;;;25.48;42.02;97665.22;5023247;27;123974;-71
2022/08/15 03:10:38;;;;;;;4.07;3.13;;;25.10;55.20;;;25.48;42.16;97666.00;5027513;27;122954;-71
2022/08/15 03:13:11;;;;;;;3.60;2.70;;;25.10;55.20;;;25.49;42.11;97676.06;5036645;27;119677;-71
2022/08/15 03:15:45;;;;;;;3.27;2.70;;;25.10;55.30;;;25.50;42.47;97677.69;5035051;27;119962;-71
2022/08/15 03:18:13;;;;;;;2.80;2.30;;;25.10;55.40;;;25.50;42.29;97668.41;5030994;27;123765;-70
2022/08/15 03:20:42;;;;;;;7.10;3.10;;;25.10;55.60;;;25.48;42.39;97670.88;5027279;27;124038;-70
2022/08/15 03:23:09;;;;;;;4.50;2.90;;;25.00;55.80;;;25.43;42.58;97668.56;5030418;27;119633;-70
2022/08/15 03:25:46;;;;;;;3.57;2.67;;;25.00;55.90;;;25.35;42.88;97662.28;5034972;27;119453;-71
2022/08/15 03:28:13;;;;;;;4.70;2.80;;;24.90;56.00;;;25.31;43.03;97673.66;5034928;27;124048;-71
2022/08/15 03:30:40;;;;;;;3.53;2.53;;;24.90;56.00;;;25.30;42.73;97674.09;5028548;27;123931;-69
2022/08/15 03:33:06;;;;;;;4.47;2.70;;;24.90;56.80;;;25.26;42.84;97676.22;5029334;27;119463;-69
2022/08/15 03:35:44;;;;;;;3.53;2.63;;;24.90;56.30;;;25.19;43.40;97674.34;5031330;27;118978;-69
2022/08/15 03:38:10;;;;;;;5.00;2.53;;;24.80;56.60;;;25.13;43.26;97676.06;5030979;27;124797;-71
2022/08/15 03:40:40;;;;;;;3.10;2.80;;;24.70;56.60;;;25.08;43.49;97682.25;5030839;27;123687;-70
2022/08/15 03:43:28;;;;;;;3.17;2.23;;;24.70;56.80;;;25.03;43.47;97675.06;5027280;27;119393;-70
2022/08/15 03:46:00;;;;;;;3.40;2.40;;;24.70;57.00;;;25.03;43.75;97675.06;5035392;27;119445;-71
2022/08/15 03:48:34;;;;;;;4.60;2.60;;;24.70;57.20;;;25.03;44.17;97680.72;5030986;27;124536;-71
2022/08/15 03:51:03;;;;;;;5.27;2.80;;;24.60;57.60;;;25.03;44.31;97677.09;5036464;27;123634;-71
2022/08/15 03:53:34;;;;;;;3.20;2.40;;;24.60;57.70;;;25.04;44.45;97676.69;5029946;27;119796;-71
2022/08/15 03:56:03;;;;;;;6.33;2.90;;;24.60;57.90;;;25.04;44.24;97675.84;5031967;27;118797;-71
2022/08/15 03:58:31;;;;;;;4.10;2.93;;;24.60;58.10;;;25.04;44.57;97684.34;5027760;27;124384;-72
2022/08/15 04:00:58;;;;;;;4.43;3.07;;;24.60;58.30;;;25.01;44.90;97677.56;5033227;27;123424;-71
2022/08/15 04:03:29;;;;;;;3.93;2.63;;;24.60;58.60;;;24.97;45.09;97674.00;5036934;27;120368;-71
2022/08/15 04:05:58;;;;;;;3.67;2.70;;;24.60;58.90;;;24.94;45.22;97674.88;5041207;27;120087;-71
2022/08/15 04:08:30;;;;;;;3.23;2.73;;;24.60;59.00;;;24.94;45.29;97672.03;5036270;27;123519;-71
2022/08/15 04:11:01;;;;;;;2.90;2.40;;;24.50;59.20;;;24.92;45.39;97685.81;5034440;27;123753;-72
2022/08/15 04:13:28;;;;;;;3.03;2.73;;;24.50;59.40;;;24.90;45.40;97666.47;5029371;27;118475;-71
2022/08/15 04:15:58;;;;;;;4.07;2.37;;;24.50;59.60;;;24.91;45.33;97672.91;5039996;27;119110;-71
2022/08/15 04:18:27;;;;;;;2.50;2.03;;;24.50;59.70;;;24.92;45.46;97674.50;5028361;27;124126;-72
2022/08/15 04:21:00;;;;;;;6.00;2.70;;;24.50;59.80;;;24.94;45.63;97683.34;5029846;27;124503;-71
2022/08/15 04:23:29;;;;;;;2.53;2.33;;;24.50;60.40;;;24.94;45.88;97666.41;5035344;27;119132;-71
2022/08/15 04:25:55;;;;;;;3.63;2.17;;;24.50;60.30;;;24.95;45.66;97684.13;5047844;27;118255;-72
2022/08/15 04:28:26;;;;;;;3.87;2.17;;;24.50;60.30;;;24.94;45.80;97677.69;5034527;27;123410;-71
2022/08/15 04:30:52;;;;;;;3.80;2.73;;;24.50;60.50;;;24.89;45.94;97681.81;5027447;27;123585;-71
2022/08/15 04:33:28;;;;;;;8.33;2.30;;;24.50;60.40;;;24.83;45.99;97683.56;5027256;27;119118;-71
2022/08/15 04:36:11;;;;;;;3.43;2.80;;;24.40;60.50;;;24.76;45.80;97689.38;5029430;27;118933;-70
2022/08/15 04:38:40;;;;;;;3.13;2.50;;;24.40;60.50;;;24.73;46.03;97695.88;5032333;27;123614;-71
2022/08/15 04:41:07;;;;;;;3.03;2.27;;;24.30;60.40;;;24.69;45.97;97693.16;5029517;27;123842;-71
2022/08/15 04:43:36;;;;;;;2.97;2.20;;;24.30;60.60;;;24.60;46.08;97695.72;5025921;27;119408;-71
2022/08/15 04:46:05;;;;;;;4.17;2.23;;;24.20;60.50;;;24.53;46.17;97697.91;5030823;27;118840;-71
2022/08/15 04:48:32;;;;;;;6.00;2.10;;;24.20;60.80;;;24.43;46.21;97706.13;5025609;27;124205;-71
2022/08/15 04:51:02;;;;;;;3.40;2.20;;;24.10;61.10;;;24.35;46.20;97709.53;5027782;27;123691;-71
2022/08/15 04:53:33;;;;;;;5.80;2.20;;;24.00;61.10;;;24.29;46.21;97697.94;5047385;27;120295;-71
2022/08/15 04:56:02;;;;;;;3.90;2.17;;;23.90;61.00;;;24.24;46.52;97704.84;5032564;27;120028;-71
2022/08/15 04:58:30;;;;;;;3.67;2.10;;;23.90;61.30;;;24.19;46.46;97708.19;5035811;27;124186;-71
2022/08/15 05:01:02;;;;;;;2.80;2.30;;;23.80;61.30;;;24.16;46.70;97702.59;5030033;27;123859;-70
2022/08/15 05:03:29;;;;;;;4.00;2.20;;;23.80;61.50;;;24.12;46.72;97711.13;5036028;27;119400;-70
2022/08/15 05:06:01;;;;;;;3.10;2.20;;;23.80;61.80;;;24.08;47.00;97701.94;5030957;27;119151;-70
2022/08/15 05:08:31;;;;;;;3.77;2.50;;;23.70;62.10;;;24.06;46.93;97701.56;5032357;27;124045;-71
2022/08/15 05:11:09;;;;;;;2.83;1.70;;;23.70;62.40;;;24.01;47.05;97713.34;5030067;27;123922;-70
2022/08/15 05:13:38;;;;;;;3.00;2.70;;;23.60;63.20;;;23.97;47.34;97718.25;5033847;27;118956;-70
2022/08/15 05:16:07;;;;;;;3.50;2.30;;;23.60;62.90;;;23.92;47.35;97713.88;5027392;27;118900;-70
2022/08/15 05:18:37;;;;;;;2.67;2.10;;;23.60;62.90;;;23.87;47.25;97714.38;5026304;27;124195;-70
2022/08/15 05:21:08;;;;;;;3.27;2.10;;;23.50;62.90;;;23.84;47.48;97706.78;5029006;27;124516;-70
2022/08/15 05:23:38;;;;;;;3.20;2.60;;;23.50;63.10;;;23.79;47.67;97718.53;5032828;27;119394;-70
2022/08/15 05:26:07;;;;;;;3.10;1.93;;;23.40;63.30;;;23.74;47.65;97705.72;5025816;27;118763;-70
2022/08/15 05:28:33;;;;;;;3.63;2.10;;;23.40;63.50;;;23.73;47.88;97704.13;5030763;27;123962;-70
2022/08/15 05:31:05;;;;;;;5.00;2.33;;;23.30;63.70;;;23.71;47.49;97700.09;5028852;27;123929;-70
2022/08/15 05:33:31;;;;;;;3.20;2.20;;;23.30;63.70;;;23.70;47.88;97698.53;5032676;27;119646;-70
2022/08/15 05:36:02;;;;;;;3.87;2.40;;;23.30;64.10;;;23.67;47.84;97688.88;5029250;27;118983;-70
2022/08/15 05:38:50;;;;;;;2.80;2.03;;;23.30;64.20;;;23.64;47.93;97697.38;5026114;27;123286;-71
2022/08/15 05:41:40;;;;;;;2.10;1.80;;;23.30;64.40;;;23.60;47.89;97695.44;5031574;27;123609;-71
2022/08/15 05:44:28;;;;;;;2.33;2.10;;;23.20;64.50;;;23.62;48.07;97705.50;5027110;27;120319;-71
2022/08/15 05:47:42;;;;;;;2.50;1.93;;;23.20;64.80;;;23.64;48.16;97703.03;5036422;27;119204;-71
2022/08/15 05:50:17;;;;;;;2.90;2.00;;;23.20;65.00;;;23.71;48.18;97700.09;5040908;27;123904;-71
2022/08/15 05:53:00;;;;;;;3.57;2.20;;;23.20;65.10;;;23.74;48.06;97688.78;5039422;27;123820;-70
2022/08/15 05:55:44;;;;;;;1.83;1.67;;;23.30;65.40;;;23.75;48.17;97684.75;5043140;27;118874;-71
2022/08/15 05:58:29;;;;;;;4.17;2.17;;;23.30;65.40;;;23.76;48.18;97686.34;5037639;27;118182;-70
2022/08/15 06:01:21;;;;;;;2.70;2.00;;;23.30;65.50;;;23.76;48.00;97679.91;5042549;27;124028;-69
2022/08/15 06:04:14;;;;;;;2.73;2.17;;;23.30;65.40;;;23.74;47.99;97683.13;5037649;27;123739;-69
2022/08/15 06:06:46;;;;;;;2.30;2.10;;;23.30;65.40;;;23.75;48.15;97673.47;5031717;27;119476;-69
2022/08/15 06:09:39;;;;;;;4.73;1.90;;;23.30;65.50;;;23.77;47.94;97667.38;5033893;27;118654;-70
2022/08/15 06:12:18;;;;;;;2.83;2.00;;;23.30;65.60;;;23.80;48.00;97658.06;5036933;27;124348;-68
2022/08/15 06:14:48;;;;;;;2.70;1.90;;;23.40;65.70;;;23.84;47.93;97658.03;5045220;27;123893;-70
2022/08/15 06:17:28;;;;;;;2.60;1.80;;;23.40;65.80;;;23.87;47.76;97674.09;5041663;27;119725;-67
2022/08/15 06:20:00;;;;;;;3.37;1.80;;;23.40;65.80;;;23.94;47.62;97685.25;5037800;27;118903;-69
2022/08/15 06:22:49;;;;;;;3.57;2.00;;;23.40;65.80;;;24.00;47.56;97700.47;5037464;27;124370;-71
2022/08/15 06:26:17;;;;;;;3.57;2.37;;;23.50;66.00;;;23.97;47.88;97696.47;5030964;27;124968;-70
2022/08/15 06:29:23;;;;;;;4.60;2.00;;;23.50;66.50;;;23.92;48.08;97708.25;4998387;28;119246;-70
2022/08/15 06:32:07;;;;;;;4.20;2.70;;;23.50;66.90;;;23.84;48.83;97711.63;5002933;28;118972;-69
2022/08/15 06:35:03;;;;;;;2.30;2.10;;;23.40;67.40;;;23.75;48.71;97718.59;5003187;28;123734;-69
2022/08/15 06:38:03;;;;;;;3.40;2.20;;;23.30;67.60;;;23.65;48.92;97711.06;5004501;28;123744;-68
2022/08/15 06:40:41;;;;;;;2.93;2.20;;;23.30;68.00;;;23.53;49.47;97720.13;5003043;28;120344;-69
2022/08/15 06:43:11;;;;;;;2.70;2.03;;;23.20;68.40;;;23.43;49.63;97730.34;4997591;28;120587;-70
2022/08/15 06:45:44;;;;;;;3.33;1.97;;;23.10;68.60;;;23.38;49.85;97734.44;4984997;28;124900;-69
2022/08/15 06:48:16;;;;;;;4.07;2.27;;;23.00;68.80;;;23.32;49.94;97735.31;4983103;28;124402;-68
2022/08/15 06:50:52;;;;;;;2.90;2.00;;;23.00;69.00;;;23.30;49.84;97732.94;5006257;28;119702;-68
2022/08/15 06:53:22;;;;;;;6.40;2.27;;;23.00;69.20;;;23.32;49.76;97738.13;5003697;28;118821;-69
2022/08/15 06:55:58;;;;;;;4.30;2.30;;;22.90;69.30;;;23.33;49.60;97732.09;4987949;28;123201;-69
2022/08/15 06:58:58;;;;;;;3.67;2.33;;;22.90;69.20;;;23.35;49.47;97729.63;4986209;28;124022;-71
2022/08/15 07:02:18;;;;;;;2.40;2.20;;;22.90;69.20;;;23.36;49.32;97728.41;5027478;27;119222;-71
2022/08/15 07:04:55;;;;;;;2.87;2.10;;;22.90;69.40;;;23.38;49.13;97725.97;5039047;27;119539;-71
2022/08/15 07:07:48;;;;;;;3.13;2.00;;;22.90;69.20;;;23.40;49.17;97725.56;5037257;27;123939;-69
2022/08/15 07:10:28;;;;;;;4.30;2.17;;;22.90;69.10;;;23.45;48.85;97721.44;5040599;27;123554;-68
2022/08/15 07:13:12;;;;;;;2.60;2.20;;;23.00;69.00;;;23.48;48.62;97731.88;5034861;27;119314;-70
2022/08/15 07:15:48;;;;;;;3.43;1.70;;;23.00;68.90;;;23.52;48.69;97724.16;5037750;27;119129;-71
2022/08/15 07:18:28;;;;;;;2.83;2.17;;;23.00;68.80;;;23.58;48.29;97733.72;5045112;27;124212;-70
2022/08/15 07:21:14;;;;;;;4.60;2.10;;;23.10;68.70;;;23.68;48.25;97718.69;5042909;27;124335;-71
2022/08/15 07:24:18;;;;;;;3.10;2.30;;;23.10;68.60;;;23.80;47.84;97720.13;5028960;27;119333;-71
2022/08/15 07:27:03;;;;;;;2.90;2.30;;;23.30;68.60;;;23.96;47.71;97722.28;5062914;27;117666;-71
2022/08/15 07:29:48;;;;;;;3.13;2.03;;;23.30;68.40;;;24.13;47.47;97731.69;5029390;27;123792;-72
2022/08/15 07:32:20;;;;;;;2.43;1.80;;;23.40;68.30;;;24.23;47.20;97731.50;5042832;27;123754;-72
2022/08/15 07:35:12;;;;;;;2.80;2.03;;;23.50;68.10;;;24.32;46.76;97721.69;5044111;27;119202;-70
2022/08/15 07:37:56;;;;;;;2.90;2.10;;;23.60;67.70;;;24.34;46.57;97724.84;5041900;27;119937;-72
2022/08/15 07:40:41;;;;;;;4.73;2.40;;;23.70;67.40;;;24.33;46.67;97728.91;5031001;27;124256;-72
2022/08/15 07:43:38;;;;;;;3.20;2.07;;;23.70;67.20;;;24.34;46.66;97714.38;5024319;27;123877;-71
2022/08/15 07:46:19;;;;;;;2.13;1.80;;;23.80;66.90;;;24.44;46.10;97723.88;5019443;27;118458;-73
2022/08/15 07:49:07;;;;;;;4.37;2.30;;;23.90;66.80;;;24.51;46.06;97723.75;5035424;27;118978;-71
2022/08/15 07:51:51;;;;;;;3.30;2.13;;;23.90;66.40;;;24.55;45.56;97727.31;5027468;27;125232;-70
2022/08/15 07:54:27;;;;;;;2.33;1.60;;;24.00;66.10;;;24.62;45.40;97729.22;5009487;27;125995;-71
2022/08/15 07:56:59;;;;;;;2.00;1.60;;;24.00;65.80;;;24.73;45.73;97723.34;5031376;27;119725;-71
2022/08/15 07:59:36;;;;;;;2.60;1.80;;;24.10;65.80;;;24.84;45.16;97733.19;5029051;27;118998;-71
2022/08/15 08:02:25;;;;;;;2.40;1.80;;;24.20;65.60;;;24.87;45.04;97729.50;5029656;27;124355;-73
2022/08/15 08:04:52;;;;;;;2.87;1.90;;;24.30;65.40;;;24.90;45.33;97733.47;5030421;27;122799;-71
2022/08/15 08:07:42;;;;;;;3.97;2.40;;;24.30;65.30;;;24.87;45.08;97740.00;5044455;27;120028;-70
2022/08/15 08:10:43;;;;;;;3.93;1.87;;;24.30;65.00;;;24.82;44.92;97741.28;5041795;27;119437;-71
2022/08/15 08:13:35;;;;;;;2.17;1.80;;;24.30;64.70;;;24.81;44.68;97731.25;5035806;27;123310;-72
2022/08/15 08:16:13;;;;;;;2.53;1.60;;;24.30;64.30;;;24.82;44.77;97737.69;5043259;27;123915;-72
2022/08/15 08:18:48;;;;;;;2.13;1.70;;;24.30;64.00;;;24.81;44.65;97733.28;5046101;27;119733;-72
2022/08/15 08:21:58;;;;;;;2.50;1.80;;;24.30;64.10;;;24.86;44.68;97724.28;5046104;27;118327;-72
2022/08/15 08:25:19;;;;;;;3.90;1.73;;;24.40;63.90;;;25.03;44.09;97734.41;5008853;27;124061;-72
2022/08/15 08:28:27;;;;;;;2.00;1.80;;;24.40;63.80;;;25.23;43.96;97734.44;5010905;27;122939;-72
2022/08/15 08:31:18;;;;;;;2.23;1.53;;;24.60;63.70;;;25.33;43.52;97736.25;5029465;27;120705;-71
2022/08/15 08:34:10;;;;;;;2.63;1.90;;;24.70;63.20;;;25.31;43.10;97721.75;5032290;27;120531;-71
2022/08/15 08:37:20;;;;;;;2.00;1.63;;;24.70;62.50;;;25.38;42.77;97717.94;5028089;27;124580;-72
2022/08/15 08:43:26;;;;;;;2.03;1.77;;;24.90;61.80;;;25.55;42.79;97719.59;5032582;27;119858;-74
2022/08/15 08:46:23;;;;;;;2.30;1.53;;;24.90;61.60;;;25.65;42.27;97731.88;5027762;27;119514;-73
2022/08/15 08:49:12;;;;;;;1.97;1.80;;;25.00;61.20;;;25.73;42.27;97721.97;5047608;27;123293;-74
2022/08/15 08:52:03;;;;;;;1.90;1.70;;;25.10;60.90;;;25.81;42.13;97733.91;5034432;27;123008;-73
2022/08/15 08:55:04;;;;;;;5.10;1.87;;;25.20;60.70;;;25.82;41.77;97735.53;5045982;27;119064;-73
2022/08/15 08:57:44;;;;;;;2.53;1.83;;;25.20;61.00;;;25.82;41.01;97738.34;5030254;27;118814;-72
2022/08/15 09:00:16;;;;;;;1.90;1.47;;;25.30;59.40;;;25.78;40.95;97726.31;5025558;27;124055;-73
2022/08/15 09:02:56;;;;;;;1.67;1.57;;;25.30;59.20;;;25.84;41.48;97732.28;5034520;27;123668;-73
2022/08/15 09:05:49;;;;;;;1.53;1.43;;;25.30;59.10;;;25.88;41.10;97733.78;5044608;27;119452;-72
2022/08/15 09:08:51;;;;;;;1.83;1.73;;;25.30;58.80;;;25.87;40.11;97743.53;5035586;27;118138;-71
2022/08/15 09:11:24;;;;;;;1.57;1.47;;;25.30;57.90;;;25.89;40.40;97746.69;5026940;27;124858;-71
2022/08/15 09:13:53;;;;;;;2.10;1.73;;;25.30;57.70;;;25.92;40.29;97745.78;5024153;27;123230;-72
2022/08/15 09:16:36;;;;;;;2.70;1.60;;;25.40;57.50;;;25.96;39.97;97732.38;5010826;27;119390;-74
2022/08/15 09:19:39;;;;;;;3.20;2.03;;;25.40;57.20;;;26.06;39.68;97743.84;5034711;27;118841;-73
2022/08/15 09:22:05;;;;;;;1.93;1.57;;;25.50;57.20;;;26.14;39.21;97728.28;5035452;27;124302;-74
2022/08/15 09:24:32;;;;;;;2.23;1.60;;;25.50;57.40;;;26.21;39.60;97728.91;5034546;27;123781;-71
2022/08/15 09:27:18;;;;;;;2.80;1.87;;;25.60;56.70;;;26.32;39.34;97727.81;5039488;27;119285;-72
2022/08/15 09:29:57;;;;;;;2.53;2.27;;;25.70;56.70;;;26.41;40.05;97731.63;5030078;27;119709;-72
2022/08/15 09:32:26;;;;;;;2.43;2.23;;;25.80;57.40;;;26.48;39.82;97733.47;5008263;27;124637;-77
2022/08/15 09:35:17;;;;;;;4.20;2.50;;;25.80;57.60;;;26.52;40.06;97719.22;5037651;27;123697;-72
2022/08/15 09:38:30;;;;;;;3.50;2.30;;;25.90;57.50;;;26.55;39.69;97729.69;5036729;27;119812;-72
2022/08/15 09:41:40;;;;;;;5.40;2.00;;;26.00;57.30;;;26.55;39.78;97724.03;5032161;27;118991;-72
2022/08/15 09:44:20;;;;;;;2.10;1.90;;;26.00;57.10;;;26.59;39.71;97722.66;5033671;27;124184;-71
2022/08/15 09:47:27;;;;;;;2.10;1.90;;;26.00;57.00;;;26.63;39.76;97719.75;5033944;27;122861;-71
2022/08/15 09:50:38;;;;;;;2.93;2.30;;;26.00;56.60;;;26.67;39.32;97709.09;5039811;27;119607;-72
2022/08/15 09:53:07;;;;;;;3.47;2.60;;;26.10;56.30;;;26.80;39.44;97706.31;5035378;27;119030;-72
2022/08/15 09:55:46;;;;;;;3.33;2.70;;;26.20;56.50;;;26.88;39.19;97702.03;5025223;27;125232;-71
2022/08/15 09:58:36;;;;;;;2.10;1.90;;;26.30;56.20;;;26.94;38.82;97705.09;5031792;27;124119;-73
2022/08/15 10:01:09;;;;;;;2.90;1.83;;;26.30;55.90;;;26.99;38.82;97713.06;5039786;27;119107;-72
2022/08/15 10:03:44;;;;;;;2.90;1.80;;;26.40;55.70;;;27.04;38.90;97706.84;5033340;27;116968;-72
2022/08/15 10:06:15;;;;;;;2.03;1.70;;;26.50;55.80;;;27.10;38.76;97707.84;5032508;27;124227;-73
2022/08/15 10:08:54;;;;;;;3.00;1.87;;;26.50;55.60;;;27.11;38.20;97703.78;5044402;27;123759;-74
2022/08/15 10:11:46;;;;;;;2.70;1.87;;;26.50;55.20;;;27.11;38.39;97703.78;5039399;27;119117;-74
2022/08/15 10:14:21;;;;;;;5.23;2.10;;;26.60;55.10;;;27.15;38.40;97698.78;5036333;27;119289;-73
2022/08/15 10:17:04;;;;;;;6.70;2.07;;;26.60;54.90;;;27.18;38.06;97697.13;5047092;27;124191;-72
2022/08/15 10:19:36;;;;;;;5.43;2.07;;;26.60;54.90;;;27.18;38.53;97682.94;5037285;27;124161;-73
2022/08/15 10:22:22;;;;;;;2.53;1.87;;;26.60;55.10;;;27.22;38.95;97669.47;5043895;27;120246;-72
2022/08/15 10:25:17;;;;;;;4.33;2.00;;;26.70;55.20;;;27.26;37.88;97685.09;5039362;27;120593;-73
2022/08/15 10:28:14;;;;;;;3.47;2.03;;;26.70;54.60;;;27.33;37.87;97686.94;5045651;27;126089;-73
2022/08/15 10:30:46;;;;;;;3.40;1.70;;;26.80;54.10;;;27.38;37.34;97682.72;5032796;27;123859;-71
2022/08/15 10:33:30;;;;;;;2.37;1.70;;;26.80;53.90;;;27.38;37.55;97677.88;5041896;27;119414;-73
2022/08/15 10:36:24;;;;;;;2.27;1.70;;;26.90;54.10;;;27.38;38.30;97677.06;5045766;27;117916;-72
2022/08/15 10:39:19;;;;;;;2.83;2.53;;;26.90;54.30;;;27.43;38.06;97671.63;5025208;27;123990;-71
2022/08/15 10:42:47;;;;;;;2.23;1.80;;;26.90;54.40;;;27.41;38.30;97670.50;5033097;27;123600;-72
2022/08/15 10:45:46;;;;;;;2.23;1.93;;;26.90;54.40;;;27.45;38.39;97671.16;5035592;27;118329;-72
2022/08/15 10:48:28;;;;;;;6.37;2.97;;;26.90;54.50;;;27.52;37.57;97676.63;5043023;27;118982;-72
2022/08/15 10:51:43;;;;;;;3.90;2.23;;;27.00;54.00;;;27.58;37.04;97671.94;5037685;27;123249;-72
2022/08/15 10:54:26;;;;;;;2.30;1.80;;;27.00;53.30;;;27.68;36.71;97659.47;5040813;27;123945;-75
2022/08/15 10:56:55;;;;;;;4.00;2.00;;;27.10;52.90;;;27.75;36.22;97666.94;5041191;27;117660;-71
2022/08/15 10:59:33;;;;;;;4.30;2.17;;;27.20;52.40;;;27.82;36.22;97663.91;5041090;27;119376;-74
2022/08/15 11:02:16;;;;;;;3.00;1.97;;;27.30;51.90;;;27.91;35.45;97651.84;5031086;27;123141;-73
2022/08/15 11:04:43;;;;;;;4.67;2.10;;;27.30;51.40;;;28.02;35.19;97657.94;5039458;27;123116;-73